Time;durP1;ratioP1;P1;durP2;ratioP2;P2;SDS_P1;SDS_P2;PMS_P1;PMS_P2;Temp;Humidity;BMP_temperature;BMP_pressure;BME280_temperature;BME280_humidity;BME280_pressure;Samples;Min_cycle;Max_cycle;Signal;HPM_P1;HPM_P2
2021/09/04 00:02:05;;;;;;;19.60;10.32;;;14.30;99.90;;;;;;5052267;28;20029;-72
2021/09/04 00:04:31;;;;;;;14.88;7.18;;;14.30;99.90;;;;;;5044013;28;20036;-72
2021/09/04 00:06:56;;;;;;;22.60;11.05;;;14.20;99.90;;;;;;5054612;28;20478;-72
2021/09/04 00:09:22;;;;;;;24.98;9.95;;;14.30;99.90;;;;;;5054491;28;20120;-72
2021/09/04 00:11:48;;;;;;;19.33;10.05;;;14.30;99.90;;;;;;5053930;28;20171;-72
2021/09/04 00:14:13;;;;;;;21.70;10.13;;;14.20;99.90;;;;;;5053914;28;20017;-72
2021/09/04 00:16:39;;;;;;;19.05;9.57;;;14.30;99.90;;;;;;5054587;28;20021;-72
2021/09/04 00:19:05;;;;;;;20.40;10.15;;;14.30;99.90;;;;;;5053962;28;20462;-71
2021/09/04 00:21:30;;;;;;;18.80;9.55;;;14.30;99.90;;;;;;5053182;28;20129;-73
2021/09/04 00:23:56;;;;;;;21.27;9.35;;;14.30;99.90;;;;;;5054486;28;20029;-72
2021/09/04 00:26:24;;;;;;;20.95;10.85;;;14.30;99.90;;;;;;5053962;28;20041;-72
2021/09/04 00:28:50;;;;;;;23.02;10.13;;;14.30;99.90;;;;;;5055059;28;20079;-73
2021/09/04 00:31:16;;;;;;;21.85;9.73;;;14.30;99.90;;;;;;5054333;28;20474;-73
2021/09/04 00:33:41;;;;;;;21.35;9.85;;;14.30;99.90;;;;;;5054049;28;20075;-73
2021/09/04 00:36:07;;;;;;;24.65;10.90;;;14.20;99.90;;;;;;5055090;28;20508;-73
2021/09/04 00:38:32;;;;;;;27.13;11.45;;;14.20;99.90;;;;;;5048151;28;20094;-73
2021/09/04 00:40:58;;;;;;;22.73;10.18;;;14.20;99.90;;;;;;5052973;28;20021;-73
2021/09/04 00:43:24;;;;;;;17.13;9.07;;;14.20;99.90;;;;;;5051243;28;20116;-73
2021/09/04 00:45:50;;;;;;;21.52;10.43;;;14.20;99.90;;;;;;5052645;28;20033;-72
2021/09/04 00:48:15;;;;;;;22.15;10.20;;;14.20;99.90;;;;;;5053191;28;20033;-73
2021/09/04 00:50:41;;;;;;;18.20;9.60;;;14.20;99.90;;;;;;5053209;28;20496;-73
2021/09/04 00:53:07;;;;;;;19.23;10.25;;;14.20;99.90;;;;;;5054124;28;20025;-73
2021/09/04 00:55:33;;;;;;;19.73;9.50;;;14.20;99.90;;;;;;5054516;28;20040;-73
2021/09/04 00:57:59;;;;;;;27.05;9.52;;;14.20;99.90;;;;;;5051918;28;20134;-73
2021/09/04 01:00:25;;;;;;;26.10;10.55;;;14.20;99.90;;;;;;5040871;28;20406;-73
2021/09/04 01:02:50;;;;;;;21.33;10.73;;;14.20;99.90;;;;;;5051863;28;20090;-73
2021/09/04 01:05:16;;;;;;;22.35;10.25;;;14.10;99.90;;;;;;5054129;28;20033;-72
2021/09/04 01:07:42;;;;;;;26.42;10.55;;;14.10;99.90;;;;;;5053505;28;20028;-73
2021/09/04 01:10:10;;;;;;;27.60;11.63;;;14.10;99.90;;;;;;5052868;28;20033;-73
2021/09/04 01:12:36;;;;;;;24.83;9.13;;;14.00;99.90;;;;;;5053354;28;20363;-73
2021/09/04 01:15:03;;;;;;;26.40;11.15;;;14.00;99.90;;;;;;5053900;28;20032;-73
2021/09/04 01:17:29;;;;;;;21.87;10.37;;;14.00;99.90;;;;;;5053717;28;20032;-73
2021/09/04 01:19:54;;;;;;;26.92;10.68;;;14.00;99.90;;;;;;5052277;28;20275;-73
2021/09/04 01:22:20;;;;;;;31.55;10.88;;;13.90;99.90;;;;;;5052065;28;20133;-73
2021/09/04 01:24:49;;;;;;;23.02;10.27;;;13.90;99.90;;;;;;5053793;28;20033;-72
2021/09/04 01:27:17;;;;;;;20.42;9.30;;;13.90;99.90;;;;;;5050372;28;20035;-73
2021/09/04 01:29:43;;;;;;;21.88;9.73;;;13.80;99.90;;;;;;5046748;28;20110;-73
2021/09/04 01:32:08;;;;;;;27.23;10.60;;;13.80;99.90;;;;;;5051476;28;20036;-73
2021/09/04 01:34:34;;;;;;;23.42;9.95;;;13.80;99.90;;;;;;5053471;28;20056;-73
2021/09/04 01:36:59;;;;;;;20.35;10.00;;;13.80;99.90;;;;;;5053056;28;20358;-73
2021/09/04 01:39:25;;;;;;;26.75;12.18;;;13.80;99.90;;;;;;5048390;28;20111;-73
2021/09/04 01:41:51;;;;;;;22.23;10.45;;;13.70;99.90;;;;;;5052025;28;20430;-73
2021/09/04 01:44:16;;;;;;;18.35;10.68;;;13.70;99.90;;;;;;5053680;28;20037;-72
2021/09/04 01:46:42;;;;;;;25.05;11.30;;;13.70;99.90;;;;;;5052903;28;20020;-73
2021/09/04 01:49:07;;;;;;;25.48;10.57;;;13.70;99.90;;;;;;5048879;28;20041;-72
2021/09/04 01:51:33;;;;;;;20.77;9.75;;;13.70;99.90;;;;;;5044114;28;20028;-73
2021/09/04 01:53:59;;;;;;;25.15;11.05;;;13.70;99.90;;;;;;5050147;28;20025;-73
2021/09/04 01:56:25;;;;;;;27.40;11.40;;;13.60;99.90;;;;;;5053188;28;20462;-73
2021/09/04 01:58:51;;;;;;;25.25;10.85;;;13.60;99.90;;;;;;5053365;28;20385;-73
2021/09/04 02:01:17;;;;;;;23.98;10.15;;;13.50;99.90;;;;;;5052151;28;20033;-73
2021/09/04 02:03:43;;;;;;;22.75;10.75;;;13.50;99.90;;;;;;5052071;28;20409;-74
2021/09/04 02:06:09;;;;;;;28.40;10.85;;;13.40;99.90;;;;;;5053487;28;20091;-72
2021/09/04 02:08:35;;;;;;;31.05;11.38;;;13.40;99.90;;;;;;5046263;28;20021;-73
2021/09/04 02:11:01;;;;;;;23.70;11.00;;;13.40;99.90;;;;;;5051944;28;20393;-75
2021/09/04 02:13:28;;;;;;;32.05;10.85;;;13.30;99.90;;;;;;5052659;28;20049;-73
2021/09/04 02:15:54;;;;;;;21.95;10.20;;;13.40;99.90;;;;;;5050426;28;20075;-71
2021/09/04 02:18:20;;;;;;;26.30;11.73;;;13.30;99.90;;;;;;5053253;28;20033;-72
2021/09/04 02:20:47;;;;;;;22.25;10.52;;;13.30;99.90;;;;;;5052008;28;20033;-72
2021/09/04 02:23:12;;;;;;;26.05;10.70;;;13.30;99.90;;;;;;5053543;28;20394;-74
2021/09/04 02:25:38;;;;;;;31.45;11.80;;;13.30;99.90;;;;;;5039554;28;20026;-71
2021/09/04 02:28:04;;;;;;;35.95;11.30;;;13.30;99.90;;;;;;5040713;28;20048;-71
2021/09/04 02:30:30;;;;;;;16.90;10.15;;;13.20;99.90;;;;;;5052462;28;20033;-71
2021/09/04 02:32:55;;;;;;;27.45;11.27;;;13.20;99.90;;;;;;5051668;28;20017;-71
2021/09/04 02:35:21;;;;;;;25.52;11.18;;;13.20;99.90;;;;;;5043507;28;20105;-71
2021/09/04 02:37:47;;;;;;;24.80;11.27;;;13.10;99.90;;;;;;5051962;28;20120;-71
2021/09/04 02:40:13;;;;;;;23.15;10.35;;;13.10;99.90;;;;;;5052159;28;20513;-71
2021/09/04 02:42:38;;;;;;;25.42;11.90;;;13.10;99.90;;;;;;5051958;28;20417;-71
2021/09/04 02:45:05;;;;;;;25.13;11.32;;;13.10;99.90;;;;;;5044199;28;20045;-71
2021/09/04 02:47:31;;;;;;;25.55;10.63;;;13.10;99.90;;;;;;5035017;28;20037;-71
2021/09/04 02:49:56;;;;;;;26.83;10.63;;;13.10;99.90;;;;;;5039708;28;20037;-71
2021/09/04 02:52:22;;;;;;;23.52;10.13;;;13.10;99.90;;;;;;5052745;28;20124;-71
2021/09/04 02:54:47;;;;;;;21.20;9.98;;;13.10;99.90;;;;;;5044708;28;20026;-71
2021/09/04 02:57:13;;;;;;;24.80;11.20;;;13.10;99.90;;;;;;5049391;28;20137;-71
2021/09/04 02:59:39;;;;;;;29.63;10.60;;;13.10;99.90;;;;;;5052833;28;20056;-71
2021/09/04 03:02:04;;;;;;;24.45;10.00;;;13.20;99.90;;;;;;5049759;28;20043;-71
2021/09/04 03:04:30;;;;;;;22.95;10.55;;;13.20;99.90;;;;;;5052591;28;20025;-71
2021/09/04 03:06:56;;;;;;;23.40;9.85;;;13.20;99.90;;;;;;5051656;28;20033;-71
2021/09/04 03:09:21;;;;;;;20.70;9.80;;;13.20;99.90;;;;;;5049381;28;20040;-72
2021/09/04 03:11:47;;;;;;;21.98;10.20;;;13.30;99.90;;;;;;5049234;28;20033;-72
2021/09/04 03:14:13;;;;;;;25.30;11.63;;;13.40;99.90;;;;;;5052629;28;20144;-72
2021/09/04 03:16:38;;;;;;;26.52;11.55;;;13.30;99.90;;;;;;5051945;28;20120;-71
2021/09/04 03:19:04;;;;;;;23.48;9.85;;;13.40;99.90;;;;;;5051803;28;20017;-71
2021/09/04 03:21:29;;;;;;;27.00;10.23;;;13.40;99.90;;;;;;5042389;28;20130;-71
2021/09/04 03:23:55;;;;;;;20.75;9.45;;;13.40;99.90;;;;;;5056351;28;20476;-72
2021/09/04 03:26:22;;;;;;;20.27;9.45;;;13.40;99.90;;;;;;5056295;28;20021;-73
2021/09/04 03:28:48;;;;;;;26.30;12.03;;;13.50;99.90;;;;;;5055889;28;20033;-73
2021/09/04 03:31:13;;;;;;;25.23;11.38;;;13.50;99.90;;;;;;5042565;28;20515;-73
2021/09/04 03:33:39;;;;;;;22.40;9.80;;;13.50;99.90;;;;;;5056189;28;20358;-73
2021/09/04 03:36:04;;;;;;;23.08;9.52;;;13.50;99.90;;;;;;5055738;28;20064;-73
2021/09/04 03:38:31;;;;;;;26.02;9.13;;;13.60;99.90;;;;;;5046162;28;20038;-73
2021/09/04 03:40:56;;;;;;;24.95;10.23;;;13.60;99.90;;;;;;5056134;28;20025;-72
2021/09/04 03:43:22;;;;;;;24.80;10.32;;;13.60;99.90;;;;;;5055190;28;20033;-73
2021/09/04 03:45:47;;;;;;;32.50;10.95;;;13.60;99.90;;;;;;5055860;28;20064;-73
2021/09/04 03:48:13;;;;;;;28.83;12.07;;;13.50;99.90;;;;;;5052778;28;20024;-73
2021/09/04 03:50:39;;;;;;;21.40;10.32;;;13.50;99.90;;;;;;5054945;28;20043;-73
2021/09/04 03:53:04;;;;;;;26.20;10.63;;;13.60;99.90;;;;;;5055574;28;20032;-73
2021/09/04 03:55:30;;;;;;;33.15;11.85;;;13.60;99.90;;;;;;5054407;28;20044;-72
2021/09/04 03:57:55;;;;;;;23.55;9.90;;;13.60;99.90;;;;;;5045823;28;20074;-72
2021/09/04 04:00:21;;;;;;;30.35;10.25;;;13.60;99.90;;;;;;5055342;28;20390;-72
2021/09/04 04:02:47;;;;;;;26.77;11.68;;;13.70;99.90;;;;;;5054798;28;20087;-72
2021/09/04 04:05:13;;;;;;;34.53;10.80;;;13.70;99.90;;;;;;5055262;28;20055;-72
2021/09/04 04:07:38;;;;;;;33.10;12.25;;;13.70;99.90;;;;;;5055052;28;20040;-71
2021/09/04 04:10:05;;;;;;;27.17;11.38;;;13.70;99.90;;;;;;5054931;28;20462;-71
2021/09/04 04:12:30;;;;;;;34.13;12.48;;;13.70;99.90;;;;;;5051129;28;20037;-71
2021/09/04 04:14:56;;;;;;;32.65;11.68;;;13.70;99.90;;;;;;5055321;28;20025;-71
2021/09/04 04:17:22;;;;;;;23.83;10.70;;;13.80;99.90;;;;;;5086713;28;20514;-71
2021/09/04 04:19:47;;;;;;;33.50;11.07;;;13.80;99.90;;;;;;5054689;28;20033;-71
2021/09/04 04:22:13;;;;;;;26.75;11.63;;;13.80;99.90;;;;;;5054607;28;20036;-71
2021/09/04 04:24:38;;;;;;;28.65;10.85;;;13.80;99.90;;;;;;5054645;28;20029;-71
2021/09/04 04:27:05;;;;;;;33.20;11.38;;;13.70;99.90;;;;;;5054851;28;20025;-71
2021/09/04 04:29:31;;;;;;;27.52;11.27;;;13.70;99.90;;;;;;5054065;28;20021;-71
2021/09/04 04:31:57;;;;;;;27.55;11.70;;;13.80;99.90;;;;;;5053324;28;20078;-71
2021/09/04 04:34:22;;;;;;;28.73;10.60;;;13.80;99.90;;;;;;5054478;28;20390;-71
2021/09/04 04:36:48;;;;;;;33.55;10.80;;;13.90;99.90;;;;;;5054577;28;20037;-71
2021/09/04 04:39:13;;;;;;;25.88;11.23;;;13.90;99.90;;;;;;5054580;28;20036;-72
2021/09/04 04:41:39;;;;;;;27.00;11.35;;;14.00;99.90;;;;;;5041828;28;20048;-71
2021/09/04 04:44:06;;;;;;;29.45;10.75;;;14.00;99.90;;;;;;5054205;28;20037;-72
2021/09/04 04:46:31;;;;;;;31.70;11.23;;;14.00;99.90;;;;;;5054130;28;20385;-71
2021/09/04 04:48:57;;;;;;;35.33;11.18;;;14.00;99.90;;;;;;5053518;28;20037;-71
2021/09/04 04:51:22;;;;;;;33.40;11.38;;;13.90;99.90;;;;;;5054321;28;20450;-71
2021/09/04 04:53:48;;;;;;;27.33;10.95;;;13.90;99.90;;;;;;5054305;28;20048;-71
2021/09/04 04:56:14;;;;;;;26.20;11.77;;;13.90;99.90;;;;;;5054416;28;20082;-71
2021/09/04 04:58:40;;;;;;;30.42;11.52;;;14.00;99.90;;;;;;5053002;28;20037;-71
2021/09/04 05:01:05;;;;;;;26.35;10.52;;;14.00;99.90;;;;;;5054134;28;20065;-71
2021/09/04 05:03:31;;;;;;;31.20;11.02;;;14.00;99.90;;;;;;5053700;28;20029;-71
2021/09/04 05:05:59;;;;;;;25.88;10.70;;;14.00;99.90;;;;;;5053384;28;20040;-71
2021/09/04 05:08:26;;;;;;;23.35;11.60;;;14.00;99.90;;;;;;5053129;28;20032;-72
2021/09/04 05:10:51;;;;;;;30.60;10.95;;;14.00;99.90;;;;;;5054013;28;20033;-71
2021/09/04 05:13:17;;;;;;;28.15;11.88;;;14.00;99.90;;;;;;5053896;28;20028;-72
2021/09/04 05:15:43;;;;;;;23.60;10.27;;;14.00;99.90;;;;;;5045305;28;20033;-72
2021/09/04 05:18:08;;;;;;;26.05;10.35;;;14.00;99.90;;;;;;5048980;28;20021;-72
2021/09/04 05:20:34;;;;;;;25.10;10.38;;;14.10;99.90;;;;;;5054291;28;20499;-73
2021/09/04 05:23:00;;;;;;;31.45;12.13;;;14.10;99.90;;;;;;5053880;28;20045;-72
2021/09/04 05:25:25;;;;;;;21.92;10.35;;;14.20;99.90;;;;;;5048451;28;20018;-73
2021/09/04 05:27:51;;;;;;;25.25;10.07;;;14.20;99.90;;;;;;5051266;28;20470;-73
2021/09/04 05:30:17;;;;;;;21.35;8.80;;;14.20;99.90;;;;;;5054786;28;20039;-73
2021/09/04 05:32:42;;;;;;;25.85;10.05;;;14.10;99.90;;;;;;5048446;28;20041;-73
2021/09/04 05:35:08;;;;;;;18.42;9.55;;;14.10;99.90;;;;;;5053389;28;20048;-72
2021/09/04 05:37:34;;;;;;;22.25;8.63;;;14.10;99.90;;;;;;5053665;28;20025;-72
2021/09/04 05:39:59;;;;;;;22.02;8.68;;;14.00;99.90;;;;;;5053083;28;20033;-72
2021/09/04 05:42:25;;;;;;;20.00;9.25;;;14.10;99.90;;;;;;5045873;28;20025;-72
2021/09/04 05:44:50;;;;;;;17.73;8.45;;;14.10;99.90;;;;;;5041978;28;20078;-74
2021/09/04 05:47:16;;;;;;;18.90;9.57;;;14.10;99.90;;;;;;5052682;28;20481;-73
2021/09/04 05:49:42;;;;;;;27.08;10.13;;;14.10;99.90;;;;;;5051999;28;20033;-72
2021/09/04 05:52:07;;;;;;;16.05;8.27;;;14.00;99.90;;;;;;5051881;28;20033;-72
2021/09/04 05:54:33;;;;;;;17.25;8.73;;;14.10;99.90;;;;;;5053182;28;20390;-72
2021/09/04 05:56:58;;;;;;;17.05;8.52;;;14.10;99.90;;;;;;5053324;28;20033;-72
2021/09/04 05:59:24;;;;;;;18.55;9.65;;;14.20;99.90;;;;;;5052756;28;20020;-72
2021/09/04 06:01:49;;;;;;;20.90;9.38;;;14.10;99.90;;;;;;5053127;28;20059;-72
2021/09/04 06:04:15;;;;;;;19.05;9.63;;;14.00;99.90;;;;;;5052853;28;20029;-72
2021/09/04 06:06:41;;;;;;;25.42;9.52;;;13.90;99.90;;;;;;5051767;28;20144;-72
2021/09/04 06:09:06;;;;;;;23.17;9.43;;;13.90;99.90;;;;;;5052744;28;20025;-72
2021/09/04 06:11:32;;;;;;;22.10;10.27;;;13.80;99.90;;;;;;5052883;28;20056;-73
2021/09/04 06:13:59;;;;;;;16.23;8.13;;;13.80;99.90;;;;;;5052293;28;20035;-73
2021/09/04 06:16:26;;;;;;;21.02;10.27;;;13.80;99.90;;;;;;5052635;28;20104;-73
2021/09/04 06:18:52;;;;;;;23.48;8.85;;;13.80;99.90;;;;;;5049170;28;20021;-72
2021/09/04 06:21:17;;;;;;;18.38;8.48;;;13.90;99.90;;;;;;5044573;28;20492;-72
2021/09/04 06:23:43;;;;;;;17.50;9.02;;;13.90;99.90;;;;;;5051627;28;20037;-72
2021/09/04 06:26:09;;;;;;;22.20;8.85;;;13.90;99.90;;;;;;5034967;28;20037;-72
2021/09/04 06:28:34;;;;;;;17.70;9.20;;;13.90;99.90;;;;;;5033208;28;20071;-73
2021/09/04 06:31:00;;;;;;;17.15;8.02;;;13.90;99.90;;;;;;5051153;28;20029;-72
2021/09/04 06:33:26;;;;;;;17.05;8.38;;;13.90;99.90;;;;;;5051471;28;20044;-73
2021/09/04 06:35:51;;;;;;;18.42;9.57;;;13.90;99.90;;;;;;5049309;28;20041;-72
2021/09/04 06:38:17;;;;;;;23.30;9.25;;;13.90;99.90;;;;;;5052772;28;20032;-73
2021/09/04 06:40:42;;;;;;;16.05;8.25;;;13.90;99.90;;;;;;5053022;28;20417;-72
2021/09/04 06:43:08;;;;;;;16.67;8.27;;;13.90;99.90;;;;;;5040350;28;20022;-73
2021/09/04 06:45:34;;;;;;;22.88;8.82;;;14.00;99.90;;;;;;5048852;28;20476;-73
2021/09/04 06:47:59;;;;;;;18.00;8.55;;;14.00;99.90;;;;;;5052709;28;20021;-73
2021/09/04 06:50:26;;;;;;;15.43;9.00;;;13.90;99.90;;;;;;5052649;28;20100;-72
2021/09/04 06:52:51;;;;;;;18.25;9.13;;;13.90;99.90;;;;;;5047622;28;20461;-72
2021/09/04 06:55:17;;;;;;;22.50;9.05;;;13.90;99.90;;;;;;5053184;28;20021;-72
2021/09/04 06:57:43;;;;;;;17.65;8.82;;;13.90;99.90;;;;;;5055190;28;20094;-72
2021/09/04 07:00:09;;;;;;;16.35;8.98;;;13.90;99.90;;;;;;5056136;28;20100;-72
2021/09/04 07:02:35;;;;;;;17.77;9.02;;;14.00;99.90;;;;;;5052343;28;20033;-72
2021/09/04 07:05:01;;;;;;;13.77;8.55;;;14.10;99.90;;;;;;5056140;28;20079;-72
2021/09/04 07:07:26;;;;;;;20.33;8.27;;;14.20;99.90;;;;;;5055019;28;20036;-72
2021/09/04 07:09:52;;;;;;;19.80;9.85;;;14.40;99.90;;;;;;5056160;28;20033;-73
2021/09/04 07:12:17;;;;;;;20.70;8.57;;;14.50;99.90;;;;;;5055900;28;20025;-72
2021/09/04 07:14:43;;;;;;;18.17;8.80;;;14.50;99.90;;;;;;5056227;28;20584;-73
2021/09/04 07:17:09;;;;;;;18.75;8.60;;;14.50;99.90;;;;;;5054821;28;20431;-72
2021/09/04 07:19:34;;;;;;;17.60;9.48;;;14.60;99.90;;;;;;5056016;28;20104;-73
2021/09/04 07:22:00;;;;;;;19.80;9.45;;;14.70;99.90;;;;;;5055609;28;20065;-72
2021/09/04 07:24:26;;;;;;;17.67;8.18;;;14.70;99.90;;;;;;5054541;28;20036;-72
2021/09/04 07:26:51;;;;;;;17.00;9.15;;;14.80;99.90;;;;;;5055963;28;20500;-72
2021/09/04 07:29:17;;;;;;;17.50;9.02;;;14.90;99.90;;;;;;5053847;28;20025;-72
2021/09/04 07:31:42;;;;;;;16.65;8.90;;;14.90;99.90;;;;;;5052979;28;20110;-72
2021/09/04 07:34:08;;;;;;;15.02;8.40;;;14.70;99.90;;;;;;5048635;28;20025;-72
2021/09/04 07:36:34;;;;;;;20.45;9.30;;;14.60;99.90;;;;;;5055971;28;20021;-72
2021/09/04 07:38:59;;;;;;;16.88;7.32;;;14.60;99.90;;;;;;5054492;28;20017;-72
2021/09/04 07:41:25;;;;;;;22.95;8.80;;;14.70;99.90;;;;;;5054981;28;20032;-72
2021/09/04 07:43:50;;;;;;;14.40;7.00;;;14.70;99.90;;;;;;5044209;28;20028;-72
2021/09/04 07:46:16;;;;;;;16.10;8.95;;;14.70;99.90;;;;;;5037966;28;20045;-71
2021/09/04 07:48:42;;;;;;;19.75;8.38;;;14.90;99.90;;;;;;5053397;28;20028;-72
2021/09/04 07:51:07;;;;;;;16.83;8.80;;;15.10;99.90;;;;;;5054740;28;20029;-72
2021/09/04 07:53:33;;;;;;;14.52;8.25;;;15.10;99.90;;;;;;5048333;28;20080;-72
2021/09/04 07:55:59;;;;;;;19.25;8.90;;;15.10;99.90;;;;;;5055381;28;20431;-72
2021/09/04 07:58:24;;;;;;;16.05;8.77;;;15.10;99.90;;;;;;5055486;28;20025;-71
2021/09/04 08:00:50;;;;;;;20.50;8.85;;;15.10;99.90;;;;;;5048182;28;20497;-72
2021/09/04 08:03:16;;;;;;;15.05;8.32;;;15.00;99.90;;;;;;5050534;28;20405;-72
2021/09/04 08:05:41;;;;;;;20.17;8.27;;;15.10;99.90;;;;;;5055277;28;20036;-72
2021/09/04 08:08:07;;;;;;;21.00;8.38;;;15.10;99.90;;;;;;5055067;28;20500;-72
2021/09/04 08:10:33;;;;;;;18.25;7.85;;;15.10;99.90;;;;;;5056072;28;20049;-72
2021/09/04 08:12:58;;;;;;;15.65;8.50;;;15.30;99.90;;;;;;5046656;28;20037;-72
2021/09/04 08:15:24;;;;;;;13.52;7.55;;;15.40;99.90;;;;;;5058262;28;20021;-72
2021/09/04 08:17:50;;;;;;;16.80;8.18;;;15.50;99.90;;;;;;5070218;28;20028;-72
2021/09/04 08:20:15;;;;;;;15.43;8.27;;;15.60;99.90;;;;;;5071392;28;20029;-72
2021/09/04 08:22:41;;;;;;;14.15;8.25;;;15.70;99.90;;;;;;5063472;28;20044;-72
2021/09/04 08:25:07;;;;;;;14.05;7.85;;;15.80;99.90;;;;;;5074270;28;20040;-72
2021/09/04 08:27:33;;;;;;;20.83;8.98;;;15.90;99.90;;;;;;5073957;28;20093;-72
2021/09/04 08:29:58;;;;;;;22.08;8.75;;;15.80;99.90;;;;;;5072423;28;20492;-72
2021/09/04 08:32:24;;;;;;;15.90;7.88;;;15.80;99.90;;;;;;5067922;28;20017;-72
2021/09/04 08:34:50;;;;;;;14.20;7.68;;;15.90;99.90;;;;;;5072114;28;20075;-72
2021/09/04 08:37:15;;;;;;;14.52;7.80;;;16.00;99.90;;;;;;5065696;28;20100;-72
2021/09/04 08:39:41;;;;;;;20.30;8.32;;;16.10;99.90;;;;;;5058263;28;20078;-72
2021/09/04 08:42:07;;;;;;;16.73;8.55;;;16.10;99.90;;;;;;5054241;28;20131;-72
2021/09/04 08:44:33;;;;;;;17.30;8.10;;;16.10;99.90;;;;;;5042348;28;20500;-72
2021/09/04 08:46:59;;;;;;;13.52;7.68;;;16.10;99.90;;;;;;5057231;28;20033;-72
2021/09/04 08:49:25;;;;;;;14.15;8.13;;;16.10;99.90;;;;;;5056036;28;20027;-72
2021/09/04 08:51:50;;;;;;;15.15;8.10;;;16.30;99.90;;;;;;5055187;28;20057;-72
2021/09/04 08:54:16;;;;;;;14.85;7.43;;;16.40;99.90;;;;;;5055369;28;20071;-72
2021/09/04 08:56:42;;;;;;;16.33;7.68;;;16.60;99.90;;;;;;5055348;28;20048;-72
2021/09/04 08:59:07;;;;;;;15.15;8.20;;;16.90;99.90;;;;;;5053149;28;20064;-72
2021/09/04 09:01:33;;;;;;;12.52;7.43;;;17.00;99.90;;;;;;5053700;28;20052;-72
2021/09/04 09:04:05;;;;;;;14.80;7.82;;;17.00;99.90;;;;;;5053853;28;20087;-72
2021/09/04 09:06:35;;;;;;;13.73;7.18;;;16.90;99.90;;;;;;5052188;28;20029;-72
2021/09/04 09:09:15;;;;;;;13.20;7.55;;;16.90;99.90;;;;;;5054384;28;20045;-72
2021/09/04 09:11:40;;;;;;;15.35;7.95;;;17.00;99.90;;;;;;5054052;28;20535;-72
2021/09/04 09:14:06;;;;;;;15.00;8.00;;;16.80;99.90;;;;;;5054063;28;20033;-72
2021/09/04 09:16:31;;;;;;;15.30;7.32;;;16.80;99.90;;;;;;5053869;28;20036;-72
2021/09/04 09:19:02;;;;;;;13.82;6.93;;;16.80;99.90;;;;;;5052774;28;20029;-72
2021/09/04 09:21:31;;;;;;;17.52;8.45;;;17.10;99.90;;;;;;5053586;28;20140;-72
2021/09/04 09:24:18;;;;;;;16.80;8.00;;;17.20;99.90;;;;;;5052477;28;20045;-72
2021/09/04 09:26:59;;;;;;;14.90;7.65;;;17.40;99.90;;;;;;5053427;28;20021;-72
2021/09/04 09:29:35;;;;;;;13.23;7.28;;;17.40;99.90;;;;;;5053266;28;20053;-72
2021/09/04 09:32:06;;;;;;;12.48;7.82;;;17.30;99.90;;;;;;5053270;28;20024;-72
2021/09/04 09:34:36;;;;;;;15.43;7.28;;;17.30;99.90;;;;;;5052728;28;20135;-72
2021/09/04 09:37:03;;;;;;;15.20;7.75;;;17.20;99.90;;;;;;5053162;28;20021;-73
2021/09/04 09:39:32;;;;;;;17.85;8.25;;;17.20;99.90;;;;;;5052429;28;20127;-72
2021/09/04 09:41:58;;;;;;;17.48;8.32;;;17.30;99.90;;;;;;5053686;28;20122;-73
2021/09/04 09:44:26;;;;;;;19.45;8.63;;;17.40;99.90;;;;;;5053146;28;20045;-73
2021/09/04 09:46:58;;;;;;;;;;;17.30;99.90;;;;;;5053347;28;20108;-73
2021/09/04 09:49:37;;;;;;;15.95;8.20;;;17.20;99.90;;;;;;5048400;28;19962;-73
2021/09/04 09:52:11;;;;;;;20.90;8.40;;;17.20;99.90;;;;;;5051086;28;20100;-73
2021/09/04 09:54:38;;;;;;;13.88;7.82;;;17.10;99.90;;;;;;5053012;28;20040;-73
2021/09/04 09:57:06;;;;;;;25.17;7.60;;;17.30;99.90;;;;;;5049197;28;20104;-76
2021/09/04 09:59:32;;;;;;;;;;;17.30;99.90;;;;;;5035396;28;20029;-75
2021/09/04 10:02:06;;;;;;;18.45;8.15;;;17.30;99.90;;;;;;5044168;28;19909;-73
2021/09/04 10:04:34;;;;;;;15.73;7.47;;;17.20;99.90;;;;;;5053474;28;20061;-73
2021/09/04 10:07:02;;;;;;;15.15;8.05;;;17.30;99.90;;;;;;5051934;28;20044;-73
2021/09/04 10:09:29;;;;;;;14.05;7.97;;;17.50;99.90;;;;;;5051942;28;20386;-73
2021/09/04 10:11:55;;;;;;;16.65;7.90;;;17.60;99.90;;;;;;5040179;28;20112;-73
2021/09/04 10:14:22;;;;;;;13.57;7.70;;;17.80;99.90;;;;;;5045296;28;20021;-73
2021/09/04 10:16:53;;;;;;;15.07;7.90;;;18.10;99.90;;;;;;5050928;28;20515;-73
2021/09/04 10:19:22;;;;;;;17.27;8.57;;;18.20;99.90;;;;;;5052697;28;20482;-73
2021/09/04 10:21:52;;;;;;;14.35;7.50;;;18.40;99.90;;;;;;5051208;28;20056;-73
2021/09/04 10:24:18;;;;;;;12.40;6.82;;;18.60;99.90;;;;;;5051468;28;20077;-73
2021/09/04 10:26:44;;;;;;;16.00;7.68;;;18.80;99.90;;;;;;5051529;28;20524;-73
2021/09/04 10:29:15;;;;;;;12.95;7.32;;;18.90;99.90;;;;;;5052338;28;20070;-73
2021/09/04 10:31:52;;;;;;;11.00;6.53;;;19.10;99.90;;;;;;5056695;28;20029;-73
2021/09/04 10:34:25;;;;;;;;;;;19.30;99.90;;;;;;5057348;28;20033;-73
2021/09/04 10:37:06;;;;;;;12.25;6.93;;;19.60;99.90;;;;;;5057131;28;19908;-73
2021/09/04 10:39:59;;;;;;;20.90;7.95;;;20.00;99.90;;;;;;5056847;28;20024;-73
2021/09/04 10:42:24;;;;;;;14.95;7.30;;;19.80;99.90;;;;;;5056879;28;20045;-73
2021/09/04 10:45:12;;;;;;;13.38;6.93;;;19.70;99.90;;;;;;5057029;28;20073;-73
2021/09/04 10:47:49;;;;;;;15.52;8.68;;;19.70;99.90;;;;;;5054240;28;20041;-73
2021/09/04 10:50:32;;;;;;;12.98;7.30;;;19.60;99.90;;;;;;5060193;28;20037;-73
2021/09/04 10:53:05;;;;;;;11.52;6.97;;;19.60;99.90;;;;;;5036978;28;20052;-73
2021/09/04 10:55:42;;;;;;;13.25;7.18;;;19.60;99.90;;;;;;5045110;28;20047;-72
2021/09/04 10:58:10;;;;;;;15.77;6.57;;;19.60;99.90;;;;;;5056086;28;20037;-72
2021/09/04 11:00:39;;;;;;;9.38;6.13;;;19.60;99.90;;;;;;5037370;28;20017;-72
2021/09/04 11:03:06;;;;;;;11.30;6.43;;;19.70;99.90;;;;;;5038042;28;20025;-71
2021/09/04 11:05:59;;;;;;;15.25;7.22;;;20.10;99.90;;;;;;5050921;28;20040;-71
2021/09/04 11:08:37;;;;;;;11.80;6.28;;;20.20;99.90;;;;;;5056985;28;20047;-71
2021/09/04 11:11:16;;;;;;;11.68;5.95;;;20.20;99.90;;;;;;5068623;28;20132;-72
2021/09/04 11:13:47;;;;;;;13.50;6.75;;;20.30;99.90;;;;;;5036577;28;20032;-72
2021/09/04 11:16:38;;;;;;;13.18;6.68;;;20.50;99.90;;;;;;5054912;28;20116;-72
2021/09/04 11:19:06;;;;;;;11.15;6.47;;;20.70;99.90;;;;;;5055504;28;20053;-72
2021/09/04 11:21:34;;;;;;;11.95;6.70;;;20.60;99.90;;;;;;5055799;28;20451;-72
2021/09/04 11:24:01;;;;;;;12.55;6.50;;;20.40;99.90;;;;;;5055101;28;20425;-72
2021/09/04 11:26:26;;;;;;;11.88;6.07;;;20.20;99.90;;;;;;5054935;28;20106;-72
2021/09/04 11:28:59;;;;;;;11.20;6.40;;;20.30;99.90;;;;;;5055448;28;20029;-72
2021/09/04 11:31:25;;;;;;;11.40;5.55;;;20.40;99.90;;;;;;5054302;28;20496;-72
2021/09/04 11:33:53;;;;;;;12.30;6.40;;;20.70;99.90;;;;;;5054491;28;20047;-72
2021/09/04 11:36:36;;;;;;;;;;;20.80;99.90;;;;;;5055931;28;20029;-72
2021/09/04 11:39:03;;;;;;;15.48;6.85;;;20.70;99.90;;;;;;5055634;28;20411;-72
2021/09/04 11:41:29;;;;;;;13.73;6.30;;;20.80;99.90;;;;;;5054666;28;20029;-72
2021/09/04 11:43:54;;;;;;;11.35;5.95;;;20.80;99.90;;;;;;5053945;28;20033;-72
2021/09/04 11:46:26;;;;;;;12.52;6.20;;;20.90;99.90;;;;;;5053721;28;20036;-72
2021/09/04 11:48:56;;;;;;;9.70;6.00;;;21.10;99.90;;;;;;5055390;28;20029;-72
2021/09/04 11:51:22;;;;;;;12.57;6.25;;;21.20;99.90;;;;;;5055488;28;20029;-72
2021/09/04 11:54:01;;;;;;;10.52;6.22;;;21.10;99.90;;;;;;5055370;28;20438;-72
2021/09/04 11:56:32;;;;;;;13.73;7.03;;;21.10;99.90;;;;;;5048928;28;20033;-72
2021/09/04 11:59:07;;;;;;;16.85;6.72;;;21.30;99.90;;;;;;5053856;28;20032;-72
2021/09/04 12:01:34;;;;;;;15.70;6.07;;;21.50;99.90;;;;;;5081483;28;20128;-73
2021/09/04 12:04:00;;;;;;;13.23;6.00;;;21.70;99.90;;;;;;5055380;28;20037;-72
2021/09/04 12:06:25;;;;;;;10.27;5.70;;;21.70;99.90;;;;;;5055577;28;20037;-72
2021/09/04 12:08:51;;;;;;;12.95;6.28;;;21.40;99.90;;;;;;5050884;28;20041;-72
2021/09/04 12:11:20;;;;;;;11.63;5.78;;;21.40;99.90;;;;;;5051412;28;20600;-73
2021/09/04 12:13:46;;;;;;;9.95;5.03;;;21.50;99.90;;;;;;5053679;28;20033;-72
2021/09/04 12:16:14;;;;;;;17.60;6.18;;;21.70;99.90;;;;;;5049640;28;20386;-72
2021/09/04 12:18:43;;;;;;;9.43;5.82;;;21.80;99.90;;;;;;5053662;28;20025;-72
2021/09/04 12:21:25;;;;;;;7.57;5.35;;;21.80;99.90;;;;;;5053740;28;20032;-72
2021/09/04 12:23:53;;;;;;;11.20;6.20;;;22.10;99.90;;;;;;5054579;28;20487;-72
2021/09/04 12:26:19;;;;;;;10.95;6.03;;;22.20;99.90;;;;;;5052157;28;20090;-73
2021/09/04 12:28:45;;;;;;;10.02;6.15;;;22.30;99.90;;;;;;5069777;28;20025;-72
2021/09/04 12:31:16;;;;;;;11.20;5.68;;;22.40;99.90;;;;;;5054285;28;20065;-72
2021/09/04 12:33:51;;;;;;;11.27;5.88;;;22.60;99.90;;;;;;5043606;28;20031;-72
2021/09/04 12:36:39;;;;;;;7.88;5.20;;;22.60;99.90;;;;;;5044703;28;20025;-72